createdAt,value
2022-09-30T00:02:20.442Z,10.95
2022-09-30T00:04:47.454Z,10.73
2022-09-30T00:07:14.472Z,10.38
2022-09-30T00:09:41.631Z,11.30
2022-09-30T00:12:08.820Z,10.63
2022-09-30T00:14:35.877Z,10.65
2022-09-30T00:17:02.837Z,11.40
2022-09-30T00:19:29.778Z,11.35
2022-09-30T00:21:56.663Z,11.18
2022-09-30T00:24:23.812Z,11.77
2022-09-30T00:26:50.718Z,10.93
2022-09-30T00:29:17.796Z,10.95
2022-09-30T00:31:44.970Z,10.68
2022-09-30T00:34:12.213Z,10.85
2022-09-30T00:36:45.315Z,10.70
2022-09-30T00:39:16.234Z,10.73
2022-09-30T00:41:43.770Z,12.02
2022-09-30T00:44:50.770Z,10.07
2022-09-30T00:47:39.237Z,10.07
2022-09-30T00:50:18.656Z,9.63
2022-09-30T00:52:51.068Z,8.27
2022-09-30T00:55:44.870Z,7.85
2022-09-30T00:58:15.963Z,7.35
2022-09-30T01:00:43.236Z,7.05
2022-09-30T01:03:10.302Z,7.15
2022-09-30T01:05:37.826Z,6.57
2022-09-30T01:08:07.229Z,6.93
2022-09-30T01:10:34.346Z,7.57
2022-09-30T01:13:01.415Z,7.30
2022-09-30T01:15:45.648Z,7.32
2022-09-30T01:18:23.211Z,6.72
2022-09-30T01:21:18.478Z,7.30
2022-09-30T01:24:08.640Z,7.57
2022-09-30T01:26:50.633Z,7.75
2022-09-30T01:29:38.955Z,7.85
2022-09-30T01:32:24.182Z,7.55
2022-09-30T01:35:16.088Z,7.03
2022-09-30T01:38:04.292Z,6.43
2022-09-30T01:40:55.018Z,6.25
2022-09-30T01:43:53.814Z,5.30
2022-09-30T01:46:30.089Z,5.47
2022-09-30T01:49:08.312Z,5.20
2022-09-30T01:52:19.742Z,5.15
2022-09-30T01:55:25.181Z,4.30
2022-09-30T01:58:01.580Z,3.92
2022-09-30T02:00:31.150Z,4.28
2022-09-30T02:03:25.763Z,4.60
2022-09-30T02:06:02.420Z,4.53
2022-09-30T02:08:43.878Z,4.45
2022-09-30T02:11:27.021Z,5.43
2022-09-30T02:16:40.478Z,5.07
2022-09-30T02:19:13.636Z,4.25
2022-09-30T02:21:43.430Z,3.85
2022-09-30T02:24:14.821Z,4.00
2022-09-30T02:26:44.742Z,3.78
2022-09-30T02:29:18.737Z,3.47
2022-09-30T02:31:49.865Z,3.53
2022-09-30T02:34:23.049Z,3.72
2022-09-30T02:37:06.876Z,3.28
2022-09-30T02:39:42.704Z,3.50
2022-09-30T02:42:23.334Z,3.28
2022-09-30T02:44:52.603Z,3.22
2022-09-30T02:47:41.473Z,3.35
2022-09-30T02:50:17.483Z,3.40
2022-09-30T02:52:59.532Z,3.00
2022-09-30T02:55:59.066Z,3.03
2022-09-30T02:58:26.258Z,3.30
2022-09-30T03:00:54.741Z,3.15
2022-09-30T03:03:23.732Z,3.80
2022-09-30T03:05:51.450Z,3.53
2022-09-30T03:08:18.765Z,3.88
2022-09-30T03:10:50.893Z,4.70
2022-09-30T03:13:41.687Z,4.20
2022-09-30T03:16:26.391Z,3.90
2022-09-30T03:19:13.694Z,3.72
2022-09-30T03:22:06.634Z,3.63
2022-09-30T03:24:55.289Z,3.78
2022-09-30T03:27:48.105Z,3.95
2022-09-30T03:30:22.120Z,4.47
2022-09-30T03:32:56.975Z,5.50
2022-09-30T03:35:49.116Z,4.07
2022-09-30T03:38:41.031Z,3.83
2022-09-30T03:41:16.847Z,4.47
2022-09-30T03:43:49.424Z,5.88
2022-09-30T03:46:28.349Z,6.78
2022-09-30T03:48:59.466Z,7.05
2022-09-30T03:51:29.289Z,6.63
2022-09-30T03:53:58.104Z,6.82
2022-09-30T03:56:31.764Z,7.55
2022-09-30T03:58:59.009Z,7.82
2022-09-30T04:01:26.010Z,8.13
2022-09-30T04:03:53.866Z,8.05
2022-09-30T04:06:23.772Z,7.43
2022-09-30T04:08:50.903Z,6.30
2022-09-30T04:11:18.138Z,6.15
2022-09-30T04:13:45.120Z,5.50
2022-09-30T04:16:12.311Z,5.45
2022-09-30T04:18:40.441Z,4.00
2022-09-30T04:21:13.942Z,4.85
2022-09-30T04:23:42.151Z,4.60
2022-09-30T04:26:13.048Z,4.15
2022-09-30T04:28:40.236Z,3.70
2022-09-30T04:31:07.689Z,2.83
2022-09-30T04:33:34.842Z,3.20
2022-09-30T04:36:01.940Z,3.90
2022-09-30T04:38:29.935Z,4.05
2022-09-30T04:40:57.159Z,3.90
2022-09-30T04:43:24.939Z,4.18
2022-09-30T04:45:52.805Z,4.18
2022-09-30T04:48:22.232Z,4.05
2022-09-30T04:50:49.654Z,3.92
2022-09-30T04:53:18.248Z,3.65
2022-09-30T04:55:46.024Z,3.60
2022-09-30T04:58:13.302Z,4.05
2022-09-30T05:00:40.462Z,4.07
2022-09-30T05:03:07.515Z,4.22
2022-09-30T05:05:34.813Z,4.28
2022-09-30T05:08:03.349Z,4.32
2022-09-30T05:10:30.617Z,4.22
2022-09-30T05:13:00.715Z,4.30
2022-09-30T05:15:27.867Z,6.18
2022-09-30T05:17:54.872Z,5.22
2022-09-30T05:20:22.003Z,4.40
2022-09-30T05:22:55.316Z,4.70
2022-09-30T05:25:23.520Z,4.70
2022-09-30T05:27:51.345Z,4.82
2022-09-30T05:30:18.398Z,4.97
2022-09-30T05:32:46.091Z,4.95
2022-09-30T05:35:13.200Z,4.70
2022-09-30T05:37:40.405Z,4.72
2022-09-30T05:40:08.672Z,4.93
2022-09-30T05:42:35.989Z,6.13
2022-09-30T05:45:06.855Z,5.25
2022-09-30T05:47:34.521Z,5.72
2022-09-30T05:50:01.582Z,6.15
2022-09-30T05:52:28.974Z,6.40
2022-09-30T05:54:57.720Z,7.10
2022-09-30T05:57:25.775Z,6.70
2022-09-30T05:59:52.895Z,6.80
2022-09-30T06:02:20.112Z,6.00
2022-09-30T06:04:47.225Z,6.15
2022-09-30T06:07:14.097Z,6.07
2022-09-30T06:09:41.225Z,5.75
2022-09-30T06:12:09.299Z,6.00
2022-09-30T06:14:36.290Z,5.70
2022-09-30T06:17:03.706Z,5.75
2022-09-30T06:19:31.100Z,5.20
2022-09-30T06:21:58.505Z,4.10
2022-09-30T06:24:26.048Z,3.42
2022-09-30T06:26:53.006Z,3.22
2022-09-30T06:29:20.254Z,3.35
2022-09-30T06:31:47.293Z,3.60
2022-09-30T06:34:14.419Z,3.17
2022-09-30T06:36:41.443Z,4.80
2022-09-30T06:39:13.408Z,4.00
2022-09-30T06:41:44.178Z,5.93
2022-09-30T06:44:19.121Z,5.57
2022-09-30T06:46:53.842Z,5.10
2022-09-30T06:49:21.488Z,5.18
2022-09-30T06:51:48.472Z,4.53
2022-09-30T06:54:15.581Z,4.38
2022-09-30T06:56:42.557Z,3.90
2022-09-30T06:59:09.772Z,2.63
2022-09-30T07:01:36.804Z,2.60
2022-09-30T07:04:09.495Z,2.53
2022-09-30T07:09:07.459Z,3.78
2022-09-30T07:11:34.831Z,3.80
2022-09-30T07:14:01.790Z,3.65
2022-09-30T07:16:28.825Z,3.70
2022-09-30T07:18:56.025Z,4.30
2022-09-30T07:21:23.043Z,3.40
2022-09-30T07:23:51.022Z,3.38
2022-09-30T07:26:20.838Z,3.05
2022-09-30T07:28:48.705Z,3.28
2022-09-30T07:31:33.756Z,3.90
2022-09-30T07:34:03.371Z,3.83
2022-09-30T07:36:33.851Z,3.50
2022-09-30T07:39:07.493Z,3.50
2022-09-30T07:41:40.910Z,3.67
2022-09-30T07:44:13.283Z,3.42
2022-09-30T07:46:41.845Z,4.00
2022-09-30T07:49:14.994Z,3.58
2022-09-30T07:51:46.235Z,4.22
2022-09-30T07:54:18.056Z,4.25
2022-09-30T07:57:16.003Z,3.80
2022-09-30T07:59:37.144Z,3.67
2022-09-30T08:02:05.664Z,3.65
2022-09-30T08:04:32.727Z,3.50
2022-09-30T08:07:02.342Z,4.72
2022-09-30T08:09:30.665Z,4.38
2022-09-30T08:11:58.211Z,4.60
2022-09-30T08:14:27.584Z,4.10
2022-09-30T08:16:58.567Z,4.55
2022-09-30T08:19:37.129Z,4.80
2022-09-30T08:25:37.815Z,4.35
2022-09-30T08:28:53.878Z,4.57
2022-09-30T08:31:48.913Z,5.03
2022-09-30T08:34:39.710Z,4.90
2022-09-30T08:37:23.340Z,5.72
2022-09-30T08:39:59.412Z,5.40
2022-09-30T08:42:57.816Z,4.97
2022-09-30T08:46:04.613Z,4.28
2022-09-30T08:49:11.861Z,4.65
2022-09-30T08:52:20.013Z,4.32
2022-09-30T08:55:32.283Z,4.55
2022-09-30T09:01:32.333Z,4.50
2022-09-30T09:04:15.367Z,3.63
2022-09-30T09:07:16.464Z,3.92
2022-09-30T09:13:18.583Z,3.60
2022-09-30T09:16:13.749Z,4.10
2022-09-30T09:19:24.359Z,3.50
2022-09-30T09:22:24.603Z,4.07
2022-09-30T09:25:44.677Z,3.65
2022-09-30T09:28:53.142Z,3.92
2022-09-30T09:34:10.675Z,3.60
2022-09-30T09:36:56.351Z,3.70
2022-09-30T09:39:47.525Z,3.67
2022-09-30T09:42:31.534Z,3.65
2022-09-30T09:45:21.542Z,3.80
2022-09-30T09:47:58.187Z,3.58
2022-09-30T09:51:06.307Z,3.67
2022-09-30T09:53:37.494Z,3.45
2022-09-30T09:56:18.786Z,3.70
2022-09-30T09:59:24.696Z,3.90
2022-09-30T10:01:54.134Z,3.40
2022-09-30T10:04:30.627Z,3.50
2022-09-30T10:07:00.536Z,3.63
2022-09-30T10:09:32.314Z,4.07
2022-09-30T10:12:08.782Z,3.50
2022-09-30T10:14:50.293Z,3.50
2022-09-30T10:17:22.055Z,3.80
2022-09-30T10:19:55.043Z,3.28
2022-09-30T10:22:34.738Z,3.60
2022-09-30T10:25:22.666Z,3.60
2022-09-30T10:28:33.388Z,3.15
2022-09-30T10:31:21.929Z,3.97
2022-09-30T10:34:58.906Z,3.65
2022-09-30T10:37:49.555Z,3.90
2022-09-30T10:41:04.923Z,3.28
2022-09-30T10:47:36.413Z,3.85
2022-09-30T10:50:13.158Z,3.17
2022-09-30T10:53:02.829Z,3.53
2022-09-30T10:55:36.448Z,3.33
2022-09-30T10:58:30.602Z,3.35
2022-09-30T11:01:36.316Z,3.80
2022-09-30T11:04:34.966Z,3.75
2022-09-30T11:08:06.324Z,3.78
2022-09-30T11:11:23.539Z,3.40
2022-09-30T11:14:19.928Z,3.53
2022-09-30T11:17:22.539Z,3.80
2022-09-30T11:20:23.535Z,4.05
2022-09-30T11:23:20.584Z,3.75
2022-09-30T11:26:00.070Z,3.58
2022-09-30T11:29:08.964Z,3.28
2022-09-30T11:32:01.109Z,3.30
2022-09-30T11:34:50.102Z,2.73
2022-09-30T11:37:55.364Z,3.25
2022-09-30T11:41:05.918Z,2.90
2022-09-30T11:44:01.809Z,3.03
2022-09-30T11:46:40.988Z,3.35
2022-09-30T11:49:39.879Z,2.83
2022-09-30T11:52:25.685Z,2.92
2022-09-30T11:55:15.121Z,3.15
2022-09-30T11:58:11.963Z,3.00
2022-09-30T12:00:49.561Z,3.10
2022-09-30T12:03:33.656Z,3.10
2022-09-30T12:06:32.531Z,2.88
2022-09-30T12:09:07.970Z,2.90
2022-09-30T12:11:47.153Z,3.20
2022-09-30T12:14:26.297Z,3.05
2022-09-30T12:16:56.735Z,6.07
2022-09-30T12:19:31.271Z,2.92
2022-09-30T12:22:16.368Z,2.97
2022-09-30T12:24:47.673Z,3.05
2022-09-30T12:27:17.606Z,2.92
2022-09-30T12:30:10.139Z,3.28
2022-09-30T12:32:58.646Z,2.83
2022-09-30T12:35:53.489Z,2.90
2022-09-30T12:38:49.370Z,3.08
2022-09-30T12:41:19.105Z,2.55
2022-09-30T12:44:24.989Z,3.00
2022-09-30T12:47:00.910Z,3.08
2022-09-30T12:49:31.423Z,2.72
2022-09-30T12:52:07.148Z,2.10
2022-09-30T12:54:40.221Z,2.90
2022-09-30T12:57:09.762Z,2.90
2022-09-30T12:59:39.738Z,2.20
2022-09-30T13:02:08.247Z,2.63
2022-09-30T13:04:42.951Z,2.47
2022-09-30T13:07:23.428Z,2.88
2022-09-30T13:10:00.270Z,2.80
2022-09-30T13:12:40.948Z,2.40
2022-09-30T13:15:40.020Z,2.83
2022-09-30T13:18:26.913Z,2.80
2022-09-30T13:21:05.026Z,2.67
2022-09-30T13:23:38.228Z,3.55
2022-09-30T13:26:42.031Z,3.33
2022-09-30T13:29:15.756Z,2.72
2022-09-30T13:31:45.758Z,2.20
2022-09-30T13:34:21.415Z,2.17
2022-09-30T13:36:51.433Z,2.58
2022-09-30T13:39:45.679Z,2.78
2022-09-30T13:42:25.158Z,4.70
2022-09-30T13:45:00.282Z,3.58
2022-09-30T13:48:13.983Z,2.60
2022-09-30T13:50:50.462Z,2.60
2022-09-30T13:53:40.748Z,2.35
2022-09-30T13:56:20.102Z,2.60
2022-09-30T13:59:06.796Z,2.80
2022-09-30T14:02:01.014Z,3.70
2022-09-30T14:05:05.313Z,2.25
2022-09-30T14:08:00.438Z,3.00
2022-09-30T14:10:59.286Z,2.33
2022-09-30T14:13:51.121Z,3.10
2022-09-30T14:17:11.245Z,2.45
2022-09-30T14:20:20.055Z,3.00
2022-09-30T14:22:48.137Z,2.55
2022-09-30T14:25:18.077Z,2.08
2022-09-30T14:28:05.111Z,2.05
2022-09-30T14:30:41.610Z,2.13
2022-09-30T14:33:25.331Z,2.72
2022-09-30T14:35:55.460Z,3.83
2022-09-30T14:38:29.635Z,4.97
2022-09-30T14:41:00.166Z,4.07
2022-09-30T14:43:39.005Z,3.55
2022-09-30T14:46:35.637Z,2.80
2022-09-30T14:49:13.572Z,3.25
2022-09-30T14:51:47.101Z,1.88
2022-09-30T14:54:29.309Z,2.58
2022-09-30T14:57:01.160Z,1.98
2022-09-30T14:59:34.734Z,1.67
2022-09-30T15:02:16.042Z,1.30
2022-09-30T15:04:51.391Z,1.50
2022-09-30T15:07:18.690Z,1.95
2022-09-30T15:09:47.832Z,1.08
2022-09-30T15:12:22.679Z,0.90
2022-09-30T15:14:58.811Z,1.30
2022-09-30T15:17:31.267Z,6.05
2022-09-30T15:22:28.861Z,3.92
2022-09-30T15:24:57.855Z,2.40
2022-09-30T15:27:30.772Z,1.42
2022-09-30T15:30:29.292Z,3.05
2022-09-30T15:33:05.080Z,4.13
2022-09-30T15:35:35.807Z,3.42
2022-09-30T15:38:15.316Z,4.05
2022-09-30T15:40:53.330Z,1.60
2022-09-30T15:43:33.601Z,1.40
2022-09-30T15:46:16.053Z,1.35
2022-09-30T15:48:45.695Z,1.10
2022-09-30T15:51:39.416Z,1.20
2022-09-30T15:54:34.435Z,1.10
2022-09-30T15:57:04.558Z,1.30
2022-09-30T16:00:31.624Z,1.08
2022-09-30T16:03:07.259Z,1.30
2022-09-30T16:05:34.358Z,1.48
2022-09-30T16:08:01.921Z,1.40
2022-09-30T16:10:30.458Z,1.42
2022-09-30T16:12:57.550Z,1.50
2022-09-30T16:15:25.178Z,1.40
2022-09-30T16:17:52.336Z,1.30
2022-09-30T16:20:24.385Z,1.58
2022-09-30T16:22:55.749Z,1.30
2022-09-30T16:25:22.824Z,1.27
2022-09-30T16:27:57.809Z,1.30
2022-09-30T16:30:25.494Z,1.02
2022-09-30T16:32:58.273Z,1.30
2022-09-30T16:35:27.556Z,1.42
2022-09-30T16:38:03.010Z,1.95
2022-09-30T16:40:32.083Z,1.60
2022-09-30T16:43:00.016Z,2.10
2022-09-30T16:45:29.119Z,2.70
2022-09-30T16:47:58.218Z,2.97
2022-09-30T16:50:43.706Z,3.20
2022-09-30T16:53:10.849Z,2.72
2022-09-30T16:55:38.491Z,2.15
2022-09-30T16:58:05.521Z,2.33
2022-09-30T17:00:32.875Z,1.85
2022-09-30T17:02:59.926Z,1.85
2022-09-30T17:05:27.927Z,1.60
2022-09-30T17:07:58.102Z,1.67
2022-09-30T17:10:31.145Z,1.55
2022-09-30T17:13:03.649Z,1.70
2022-09-30T17:15:32.671Z,1.63
2022-09-30T17:18:03.957Z,1.65
2022-09-30T17:20:31.053Z,2.60
2022-09-30T17:22:58.043Z,2.22
2022-09-30T17:25:27.225Z,1.80
2022-09-30T17:27:54.374Z,1.88
2022-09-30T17:30:21.621Z,1.98
2022-09-30T17:32:48.799Z,2.47
2022-09-30T17:35:16.931Z,2.42
2022-09-30T17:37:46.343Z,2.78
2022-09-30T17:40:32.501Z,2.53
2022-09-30T17:43:08.647Z,2.50
2022-09-30T17:45:36.815Z,2.80
2022-09-30T17:48:05.785Z,3.05
2022-09-30T17:50:32.694Z,4.18
2022-09-30T17:52:59.723Z,4.18
2022-09-30T17:55:27.818Z,3.78
2022-09-30T17:57:55.971Z,3.40
2022-09-30T18:00:23.818Z,3.08
2022-09-30T18:02:50.755Z,3.10
2022-09-30T18:05:17.735Z,2.88
2022-09-30T18:07:45.810Z,2.50
2022-09-30T18:10:15.806Z,2.85
2022-09-30T18:12:42.945Z,2.47
2022-09-30T18:15:10.592Z,2.78
2022-09-30T18:17:37.707Z,2.40
2022-09-30T18:20:05.394Z,2.15
2022-09-30T18:22:32.386Z,2.25
2022-09-30T18:25:17.696Z,2.13
2022-09-30T18:27:44.717Z,2.10
2022-09-30T18:30:13.310Z,2.45
2022-09-30T18:32:41.410Z,2.60
2022-09-30T18:35:12.369Z,3.10
2022-09-30T18:37:42.275Z,2.88
2022-09-30T18:40:10.007Z,3.28
2022-09-30T18:42:37.909Z,3.38
2022-09-30T18:45:06.205Z,3.80
2022-09-30T18:47:33.196Z,7.80
2022-09-30T18:50:00.201Z,7.40
2022-09-30T18:52:27.349Z,6.43
2022-09-30T18:54:54.532Z,5.57
2022-09-30T18:57:21.437Z,4.00
2022-09-30T18:59:48.473Z,3.58
2022-09-30T19:02:18.187Z,5.15
2022-09-30T19:04:46.274Z,5.50
2022-09-30T19:07:13.197Z,4.53
2022-09-30T19:09:41.267Z,4.30
2022-09-30T19:12:08.272Z,4.40
2022-09-30T19:14:38.574Z,3.50
2022-09-30T19:17:05.712Z,3.30
2022-09-30T19:19:38.982Z,3.03
2022-09-30T19:22:05.920Z,2.90
2022-09-30T19:24:32.939Z,3.13
2022-09-30T19:26:59.892Z,3.35
2022-09-30T19:29:27.002Z,4.28
2022-09-30T19:31:54.316Z,4.13
2022-09-30T19:34:30.951Z,3.60
2022-09-30T19:36:59.938Z,4.20
2022-09-30T19:39:36.773Z,4.38
2022-09-30T19:42:10.199Z,5.72
2022-09-30T19:44:38.190Z,5.70
2022-09-30T19:47:05.161Z,9.27
2022-09-30T19:49:32.200Z,6.20
2022-09-30T19:51:59.818Z,4.90
2022-09-30T19:54:38.233Z,6.47
2022-09-30T19:57:08.078Z,5.95
2022-09-30T19:59:35.127Z,6.18
2022-09-30T20:02:02.469Z,6.13
2022-09-30T20:04:30.165Z,5.72
2022-09-30T20:06:58.266Z,5.43
2022-09-30T20:09:25.398Z,5.22
2022-09-30T20:11:53.037Z,5.72
2022-09-30T20:14:38.611Z,5.57
2022-09-30T20:17:05.639Z,7.43
2022-09-30T20:19:34.801Z,7.28
2022-09-30T20:22:01.975Z,6.50
2022-09-30T20:24:29.173Z,6.38
2022-09-30T20:26:56.120Z,6.35
2022-09-30T20:29:23.137Z,5.97
2022-09-30T20:31:51.244Z,6.45
2022-09-30T20:34:19.592Z,6.13
2022-09-30T20:36:46.959Z,5.40
2022-09-30T20:39:13.956Z,5.18
2022-09-30T20:41:50.398Z,5.13
2022-09-30T20:44:29.510Z,4.78
2022-09-30T20:47:01.286Z,5.03
2022-09-30T20:49:30.484Z,4.37
2022-09-30T20:52:04.342Z,3.10
2022-09-30T20:54:36.277Z,3.35
2022-09-30T20:57:09.189Z,3.53
2022-09-30T20:59:39.716Z,2.33
2022-09-30T21:02:16.020Z,2.03
2022-09-30T21:04:47.601Z,1.92
2022-09-30T21:07:19.531Z,1.70
2022-09-30T21:09:52.619Z,1.83
2022-09-30T21:12:23.053Z,2.05
2022-09-30T21:15:14.631Z,2.55
2022-09-30T21:17:47.760Z,2.25
2022-09-30T21:20:18.758Z,2.47
2022-09-30T21:22:48.565Z,2.58
2022-09-30T21:25:19.979Z,2.00
2022-09-30T21:27:51.811Z,1.88
2022-09-30T21:30:21.647Z,4.72
2022-09-30T21:32:55.704Z,2.08
2022-09-30T21:35:26.648Z,2.10
2022-09-30T21:38:02.648Z,2.05
2022-09-30T21:40:43.021Z,2.00
2022-09-30T21:43:17.386Z,2.05
2022-09-30T21:46:01.923Z,2.10
2022-09-30T21:48:38.313Z,2.10
2022-09-30T21:51:18.305Z,2.35
2022-09-30T21:54:22.997Z,2.58
2022-09-30T21:57:06.671Z,2.53
2022-09-30T21:59:45.424Z,2.60
2022-09-30T22:02:19.540Z,2.40
2022-09-30T22:04:53.368Z,2.45
2022-09-30T22:07:29.001Z,2.58
2022-09-30T22:10:04.870Z,2.30
2022-09-30T22:12:35.810Z,2.42
2022-09-30T22:15:17.775Z,2.20
2022-09-30T22:18:13.637Z,2.20
2022-09-30T22:20:49.129Z,2.38
2022-09-30T22:26:09.434Z,2.47
2022-09-30T22:28:42.626Z,2.55
2022-09-30T22:31:13.758Z,2.53
2022-09-30T22:34:02.628Z,2.50
2022-09-30T22:36:54.465Z,2.40
2022-09-30T22:39:36.450Z,2.47
2022-09-30T22:42:10.052Z,2.65
2022-09-30T22:44:42.047Z,2.60
2022-09-30T22:47:16.960Z,2.20
2022-09-30T22:49:59.716Z,2.10
2022-09-30T22:55:49.165Z,1.95
2022-09-30T22:58:18.472Z,2.00
2022-09-30T23:01:12.846Z,2.00
2022-09-30T23:03:43.616Z,1.83
2022-09-30T23:06:14.580Z,2.28
2022-09-30T23:08:46.395Z,1.83
2022-09-30T23:11:18.908Z,1.90
2022-09-30T23:13:58.829Z,1.70
2022-09-30T23:16:38.950Z,1.77
2022-09-30T23:19:14.115Z,1.90
2022-09-30T23:21:47.600Z,1.67
2022-09-30T23:24:21.461Z,1.80
2022-09-30T23:26:56.033Z,1.67
2022-09-30T23:29:26.220Z,1.67
2022-09-30T23:31:57.677Z,1.70
2022-09-30T23:34:31.732Z,1.55
2022-09-30T23:37:07.695Z,1.70
2022-09-30T23:39:38.111Z,1.60
2022-09-30T23:42:08.180Z,1.85
2022-09-30T23:44:37.675Z,1.70
2022-09-30T23:47:26.431Z,1.65
2022-09-30T23:50:05.932Z,1.80
2022-09-30T23:52:35.341Z,1.80
2022-09-30T23:55:05.473Z,1.63
2022-09-30T23:57:40.343Z,1.70
